createdAt,value
2019-05-12T00:02:48.339Z,54.21
2019-05-12T00:05:53.056Z,53.54
2019-05-12T00:08:58.827Z,53.28
2019-05-12T00:12:04.484Z,53.57
2019-05-12T00:15:10.408Z,53.24
2019-05-12T00:18:18.054Z,53.83
2019-05-12T00:21:23.541Z,54.40
2019-05-12T00:24:29.199Z,54.48
2019-05-12T00:27:34.902Z,53.71
2019-05-12T00:30:48.731Z,53.85
2019-05-12T00:33:58.569Z,53.38
2019-05-12T00:37:03.529Z,54.03
2019-05-12T00:40:09.415Z,52.48
2019-05-12T00:43:15.185Z,52.48
2019-05-12T00:46:20.836Z,52.04
2019-05-12T00:49:28.754Z,52.87
2019-05-12T00:52:34.014Z,52.09
2019-05-12T00:55:39.711Z,53.54
2019-05-12T00:58:45.659Z,53.54
2019-05-12T01:01:51.419Z,54.38
2019-05-12T01:04:58.140Z,54.06
2019-05-12T01:08:04.822Z,54.14
2019-05-12T01:11:10.503Z,54.24
2019-05-12T01:14:18.495Z,53.97
2019-05-12T01:17:23.631Z,54.52
2019-05-12T01:20:29.367Z,54.10
2019-05-12T01:23:35.011Z,55.81
2019-05-12T01:26:41.801Z,55.00
2019-05-12T01:29:48.493Z,55.00
2019-05-12T01:32:55.213Z,57.14
2019-05-12T01:36:00.995Z,58.28
2019-05-12T01:39:08.771Z,56.98
2019-05-12T01:42:14.431Z,58.62
2019-05-12T01:45:20.250Z,58.62
2019-05-12T01:48:28.511Z,60.38
2019-05-12T01:51:33.371Z,59.83
2019-05-12T01:54:39.054Z,60.17
2019-05-12T01:57:44.806Z,58.79
2019-05-12T02:00:50.508Z,58.80
2019-05-12T02:03:58.405Z,58.70
2019-05-12T02:07:05.493Z,58.18
2019-05-12T02:10:11.699Z,58.78
2019-05-12T02:13:18.275Z,59.48
2019-05-12T02:16:24.018Z,59.93
2019-05-12T02:19:29.844Z,59.64
2019-05-12T02:22:35.573Z,59.06
2019-05-12T02:25:41.335Z,59.84
2019-05-12T02:28:48.033Z,60.38
2019-05-12T02:31:53.909Z,59.82
2019-05-12T02:34:59.728Z,61.57
2019-05-12T02:38:05.616Z,60.47
2019-05-12T02:41:11.636Z,61.09
2019-05-12T02:44:17.282Z,60.52
2019-05-12T02:47:24.118Z,59.71
2019-05-12T02:50:37.157Z,61.20
2019-05-12T02:53:46.833Z,61.12
2019-05-12T02:56:55.096Z,59.20
2019-05-12T03:00:05.077Z,58.66
2019-05-12T03:03:14.439Z,59.46
2019-05-12T03:06:20.750Z,58.52
2019-05-12T03:09:26.430Z,57.51
2019-05-12T03:12:34.475Z,57.70
2019-05-12T03:15:39.564Z,57.43
2019-05-12T03:18:45.299Z,58.58
2019-05-12T03:21:50.938Z,56.77
2019-05-12T03:25:08.017Z,55.58
2019-05-12T03:28:07.379Z,55.48
2019-05-12T03:31:11.434Z,55.48
2019-05-12T03:34:19.798Z,56.60
2019-05-12T03:37:30.663Z,55.31
2019-05-12T03:40:37.684Z,53.33
2019-05-12T03:43:39.435Z,52.21
2019-05-12T03:46:45.756Z,50.87
2019-05-12T03:49:54.434Z,50.03
2019-05-12T03:52:59.020Z,50.03
2019-05-12T03:56:04.833Z,49.50
2019-05-12T03:59:10.574Z,48.24
2019-05-12T04:02:16.325Z,47.29
2019-05-12T04:05:24.328Z,47.30
2019-05-12T04:08:29.459Z,47.30
2019-05-12T04:11:35.820Z,47.03
2019-05-12T04:14:44.851Z,47.64
2019-05-12T04:17:49.276Z,47.29
2019-05-12T04:20:54.966Z,46.75
2019-05-12T04:24:00.683Z,47.25
2019-05-12T04:27:06.374Z,46.76
2019-05-12T04:30:14.465Z,47.10
2019-05-12T04:33:19.763Z,46.91
2019-05-12T04:36:25.500Z,46.15
2019-05-12T04:39:33.979Z,46.30
2019-05-12T04:42:38.554Z,45.50
2019-05-12T04:45:45.260Z,45.99
2019-05-12T04:48:54.474Z,45.20
2019-05-12T04:51:58.641Z,45.23
2019-05-12T04:55:04.939Z,47.59
2019-05-12T04:58:10.845Z,46.59
2019-05-12T05:01:16.526Z,46.44
2019-05-12T05:04:24.389Z,45.44
2019-05-12T05:07:29.758Z,45.73
2019-05-12T05:10:35.486Z,45.88
2019-05-12T05:13:44.485Z,45.73
2019-05-12T05:16:50.358Z,45.47
2019-05-12T05:19:56.138Z,44.92
2019-05-12T05:23:03.503Z,46.53
2019-05-12T05:26:20.910Z,44.73
2019-05-12T05:29:16.749Z,45.83
2019-05-12T05:32:23.270Z,45.04
2019-05-12T05:35:37.209Z,44.38
2019-05-12T05:38:36.771Z,44.93
2019-05-12T05:41:48.808Z,44.45
2019-05-12T05:44:49.983Z,44.91
2019-05-12T05:47:59.699Z,44.73
2019-05-12T05:51:05.892Z,44.16
2019-05-12T05:54:10.607Z,42.87
2019-05-12T05:57:20.036Z,42.84
2019-05-12T06:00:26.306Z,42.03
2019-05-12T06:03:33.881Z,42.08
2019-05-12T06:06:42.499Z,41.96
2019-05-12T06:09:47.586Z,42.57
2019-05-12T06:12:54.258Z,44.53
2019-05-12T06:15:59.941Z,44.89
2019-05-12T06:19:05.660Z,44.38
2019-05-12T06:22:15.324Z,42.77
2019-05-12T06:25:18.844Z,41.25
2019-05-12T06:28:25.772Z,40.58
2019-05-12T06:31:33.445Z,40.57
2019-05-12T06:34:38.934Z,40.06
2019-05-12T06:37:57.335Z,38.65
2019-05-12T06:40:54.357Z,39.09
2019-05-12T06:44:08.727Z,41.43
2019-05-12T06:47:14.379Z,42.42
2019-05-12T06:50:20.192Z,42.55
2019-05-12T06:53:30.762Z,41.97
2019-05-12T06:56:34.238Z,41.97
2019-05-12T06:59:41.962Z,41.14
2019-05-12T07:02:52.241Z,44.26
2019-05-12T07:05:54.967Z,43.63
2019-05-12T07:09:08.996Z,43.96
2019-05-12T07:12:15.338Z,43.81
2019-05-12T07:15:23.529Z,43.79
2019-05-12T07:18:37.038Z,44.52
2019-05-12T07:21:43.957Z,42.91
2019-05-12T07:24:52.788Z,43.07
2019-05-12T07:28:01.545Z,41.04
2019-05-12T07:31:06.501Z,40.65
2019-05-12T07:34:13.652Z,42.22
2019-05-12T07:37:20.906Z,42.11
2019-05-12T07:40:29.979Z,41.31
2019-05-12T07:43:35.698Z,39.49
2019-05-12T07:46:47.758Z,39.58
2019-05-12T07:49:48.784Z,40.44
2019-05-12T07:52:54.549Z,42.15
2019-05-12T07:56:00.280Z,40.82
2019-05-12T07:59:06.060Z,40.33
2019-05-12T08:02:14.132Z,39.55
2019-05-12T08:05:21.247Z,39.89
2019-05-12T08:08:26.574Z,39.20
2019-05-12T08:11:37.302Z,40.31
2019-05-12T08:14:43.804Z,41.62
2019-05-12T08:17:49.294Z,40.77
2019-05-12T08:20:56.116Z,40.40
2019-05-12T08:24:03.719Z,39.59
2019-05-12T08:27:09.430Z,39.20
2019-05-12T08:30:15.354Z,39.67
2019-05-12T08:33:23.771Z,39.24
2019-05-12T08:36:28.712Z,38.16
2019-05-12T08:39:34.462Z,38.90
2019-05-12T08:42:40.124Z,39.54
2019-05-12T08:45:45.886Z,39.67
2019-05-12T08:48:59.984Z,40.47
2019-05-12T08:52:00.427Z,40.23
2019-05-12T08:55:06.385Z,41.64
2019-05-12T08:58:28.174Z,41.38
2019-05-12T09:01:20.405Z,39.75
2019-05-12T09:04:27.085Z,38.96
2019-05-12T09:07:35.911Z,39.05
2019-05-12T09:10:41.249Z,39.71
2019-05-12T09:13:52.684Z,40.74
2019-05-12T09:17:02.544Z,40.28
2019-05-12T09:20:06.870Z,39.50
2019-05-12T09:23:09.419Z,39.27
2019-05-12T09:26:18.685Z,39.78
2019-05-12T09:29:25.122Z,41.63
2019-05-12T09:32:30.147Z,43.15
2019-05-12T09:35:39.282Z,43.15
2019-05-12T09:38:55.911Z,42.81
2019-05-12T09:41:56.918Z,41.18
2019-05-12T09:45:08.044Z,41.26
2019-05-12T09:48:10.053Z,40.41
2019-05-12T09:51:17.291Z,39.77
2019-05-12T09:54:26.146Z,39.58
2019-05-12T09:57:32.406Z,39.46
2019-05-12T10:00:37.899Z,39.53
2019-05-12T10:03:43.966Z,39.27
2019-05-12T10:06:49.634Z,37.85
2019-05-12T10:09:58.902Z,39.07
2019-05-12T10:13:04.790Z,37.81
2019-05-12T10:16:10.219Z,37.89
2019-05-12T10:19:15.956Z,37.71
2019-05-12T10:22:23.600Z,39.99
2019-05-12T10:25:30.697Z,38.92
2019-05-12T10:28:36.656Z,38.89
2019-05-12T10:31:44.571Z,38.19
2019-05-12T10:34:51.190Z,37.34
2019-05-12T10:38:00.124Z,37.65
2019-05-12T10:41:05.313Z,37.40
2019-05-12T10:44:11.055Z,36.95
2019-05-12T10:47:16.703Z,37.36
2019-05-12T10:50:23.493Z,36.28
2019-05-12T10:53:29.315Z,36.84
2019-05-12T10:56:35.720Z,36.21
2019-05-12T10:59:45.189Z,35.51
2019-05-12T11:02:53.492Z,34.75
2019-05-12T11:06:02.388Z,35.03
2019-05-12T11:09:08.787Z,36.11
2019-05-12T11:12:19.075Z,37.19
2019-05-12T11:15:48.376Z,36.38
2019-05-12T11:18:54.180Z,36.02
2019-05-12T11:22:03.703Z,36.71
2019-05-12T11:25:09.599Z,37.07
2019-05-12T11:28:18.974Z,37.12
2019-05-12T11:31:27.490Z,37.18
2019-05-12T11:34:34.961Z,36.45
2019-05-12T11:37:40.727Z,35.93
2019-05-12T11:40:47.924Z,35.07
2019-05-12T11:43:53.789Z,34.21
2019-05-12T11:47:00.195Z,35.83
2019-05-12T11:50:09.767Z,36.08
2019-05-12T11:53:17.361Z,35.88
2019-05-12T11:56:31.020Z,34.62
2019-05-12T11:59:36.831Z,34.56
2019-05-12T12:02:43.758Z,34.10
2019-05-12T12:05:53.760Z,34.15
2019-05-12T12:08:59.773Z,34.22
2019-05-12T12:12:07.186Z,35.06
2019-05-12T12:15:13.845Z,35.93
2019-05-12T12:18:19.583Z,36.15
2019-05-12T12:21:25.321Z,36.67
2019-05-12T12:24:31.650Z,37.83
2019-05-12T12:27:46.757Z,37.05
2019-05-12T12:30:56.925Z,37.28
2019-05-12T12:34:00.236Z,37.53
2019-05-12T12:37:06.049Z,38.55
2019-05-12T12:40:20.171Z,38.27
2019-05-12T12:43:37.032Z,38.51
2019-05-12T12:46:45.471Z,38.47
2019-05-12T12:49:56.488Z,38.82
2019-05-12T12:53:02.479Z,39.47
2019-05-12T12:56:08.282Z,39.44
2019-05-12T12:59:14.639Z,39.30
2019-05-12T13:02:20.495Z,39.55
2019-05-12T13:05:27.568Z,39.79
2019-05-12T13:08:34.416Z,39.91
2019-05-12T13:11:44.290Z,40.15
2019-05-12T13:14:49.575Z,39.34
2019-05-12T13:17:55.366Z,38.77
2019-05-12T13:21:03.862Z,38.33
2019-05-12T13:24:15.311Z,37.96
2019-05-12T13:27:25.198Z,38.44
2019-05-12T13:30:28.378Z,37.85
2019-05-12T13:33:34.037Z,37.08
2019-05-12T13:36:41.117Z,37.39
2019-05-12T13:39:55.204Z,37.33
2019-05-12T13:43:00.701Z,37.63
2019-05-12T13:46:07.064Z,38.06
2019-05-12T13:49:15.569Z,38.61
2019-05-12T13:52:26.409Z,38.82
2019-05-12T13:55:30.950Z,39.09
2019-05-12T13:58:42.594Z,39.69
2019-05-12T14:01:45.725Z,40.84
2019-05-12T14:05:00.446Z,40.70
2019-05-12T14:08:05.610Z,40.91
2019-05-12T14:11:13.091Z,41.40
2019-05-12T14:14:19.518Z,41.51
2019-05-12T14:17:37.328Z,42.70
2019-05-12T14:20:44.920Z,42.32
2019-05-12T14:23:48.473Z,42.29
2019-05-12T14:26:54.225Z,42.31
2019-05-12T14:30:09.467Z,42.59
2019-05-12T14:33:07.733Z,42.29
2019-05-12T14:36:21.547Z,42.51
2019-05-12T14:39:20.912Z,42.37
2019-05-12T14:42:34.857Z,42.51
2019-05-12T14:45:34.364Z,42.41
2019-05-12T14:48:45.117Z,42.49
2019-05-12T14:51:47.515Z,42.49
2019-05-12T14:54:54.159Z,42.79
2019-05-12T14:58:03.569Z,42.87
2019-05-12T15:01:09.037Z,43.00
2019-05-12T15:04:19.519Z,43.47
2019-05-12T15:07:23.798Z,43.65
2019-05-12T15:10:29.591Z,43.68
2019-05-12T15:13:36.530Z,43.61
2019-05-12T15:16:44.810Z,43.98
2019-05-12T15:19:49.657Z,43.95
2019-05-12T15:22:56.983Z,43.96
2019-05-12T15:26:04.321Z,43.94
2019-05-12T15:29:13.497Z,43.91
2019-05-12T15:32:17.644Z,43.60
2019-05-12T15:35:26.926Z,43.57
2019-05-12T15:38:34.243Z,43.15
2019-05-12T15:41:40.014Z,42.89
2019-05-12T15:44:47.388Z,42.75
2019-05-12T15:47:53.565Z,42.56
2019-05-12T15:51:04.398Z,42.53
2019-05-12T15:54:11.527Z,42.51
2019-05-12T15:57:14.114Z,42.81
2019-05-12T16:00:20.466Z,43.08
2019-05-12T16:03:26.797Z,43.43
2019-05-12T16:06:33.768Z,43.67
2019-05-12T16:09:40.545Z,43.67
2019-05-12T16:12:46.279Z,43.78
2019-05-12T16:15:57.590Z,44.00
2019-05-12T16:18:59.600Z,44.22
2019-05-12T16:22:05.309Z,44.49
2019-05-12T16:25:11.587Z,44.63
2019-05-12T16:28:23.098Z,44.42
2019-05-12T16:31:25.877Z,44.40
2019-05-12T16:34:36.094Z,44.16
2019-05-12T16:37:38.986Z,43.99
2019-05-12T16:40:48.530Z,43.84
2019-05-12T16:43:53.707Z,43.54
2019-05-12T16:46:59.766Z,43.67
2019-05-12T16:50:24.826Z,43.42
2019-05-12T16:53:27.927Z,43.33
2019-05-12T16:56:34.980Z,43.35
2019-05-12T16:59:40.718Z,43.14
2019-05-12T17:02:52.919Z,42.95
2019-05-12T17:05:57.754Z,42.84
2019-05-12T17:09:03.374Z,42.16
2019-05-12T17:12:10.831Z,42.31
2019-05-12T17:15:16.723Z,41.52
2019-05-12T17:18:24.586Z,41.21
2019-05-12T17:21:30.040Z,40.84
2019-05-12T17:24:35.860Z,40.61
2019-05-12T17:27:41.557Z,39.84
2019-05-12T17:30:48.528Z,39.08
2019-05-12T17:33:54.433Z,38.71
2019-05-12T17:37:00.575Z,38.46
2019-05-12T17:40:09.218Z,37.36
2019-05-12T17:43:14.539Z,37.34
2019-05-12T17:46:23.824Z,37.03
2019-05-12T17:49:30.812Z,36.49
2019-05-12T17:52:36.830Z,36.37
2019-05-12T17:55:51.375Z,36.35
2019-05-12T17:58:50.098Z,36.14
2019-05-12T18:01:59.982Z,36.13
2019-05-12T18:05:14.719Z,36.11
2019-05-12T18:08:24.076Z,36.25
2019-05-12T18:11:27.480Z,36.24
2019-05-12T18:15:00.466Z,36.61
2019-05-12T18:19:25.420Z,36.52
2019-05-12T18:27:04.032Z,36.65
2019-05-12T18:30:05.792Z,36.97
2019-05-12T18:33:13.681Z,37.05
2019-05-12T18:36:19.070Z,38.24
2019-05-12T18:39:28.051Z,38.86
2019-05-12T18:42:33.785Z,38.72
2019-05-12T18:45:39.518Z,38.92
2019-05-12T18:48:54.262Z,39.29
2019-05-12T18:51:57.170Z,39.57
2019-05-12T18:55:04.685Z,40.09
2019-05-12T18:58:14.623Z,40.47
2019-05-12T19:01:19.290Z,40.47
2019-05-12T19:04:25.080Z,40.12
2019-05-12T19:07:39.774Z,39.67
2019-05-12T19:10:38.567Z,39.64
2019-05-12T19:13:51.643Z,39.94
2019-05-12T19:16:53.814Z,39.92
2019-05-12T19:20:01.550Z,40.08
2019-05-12T19:23:09.678Z,40.61
2019-05-12T19:26:15.339Z,40.81
2019-05-12T19:29:21.024Z,41.84
2019-05-12T19:32:28.267Z,43.82
2019-05-12T19:35:43.905Z,44.72
2019-05-12T19:38:49.590Z,45.02
2019-05-12T19:41:55.461Z,46.44
2019-05-12T19:45:06.727Z,47.09
2019-05-12T19:48:23.268Z,48.77
2019-05-12T19:51:24.596Z,50.16
2019-05-12T19:54:30.055Z,50.79
2019-05-12T19:57:33.784Z,51.75
2019-05-12T20:00:39.797Z,51.65
2019-05-12T20:03:49.988Z,52.38
2019-05-12T20:06:54.516Z,53.05
2019-05-12T20:10:00.933Z,53.76
2019-05-12T20:13:35.953Z,53.74
2019-05-12T20:17:01.971Z,54.68
2019-05-12T20:20:17.885Z,54.32
2019-05-12T20:23:24.543Z,55.60
2019-05-12T20:26:33.204Z,56.08
2019-05-12T20:29:39.794Z,55.82
2019-05-12T20:32:45.719Z,55.54
2019-05-12T20:35:59.937Z,56.10
2019-05-12T20:39:09.983Z,56.63
2019-05-12T20:42:16.970Z,56.26
2019-05-12T20:45:25.850Z,57.51
2019-05-12T20:48:31.241Z,57.31
2019-05-12T20:51:37.048Z,55.91
2019-05-12T20:54:44.137Z,56.36
2019-05-12T20:57:56.942Z,55.65
2019-05-12T21:01:05.086Z,56.32
2019-05-12T21:04:14.240Z,56.32
2019-05-12T21:07:24.798Z,55.33
2019-05-12T21:10:49.073Z,55.59
2019-05-12T21:14:00.926Z,55.38
2019-05-12T21:17:09.437Z,55.71
2019-05-12T21:20:16.696Z,55.38
2019-05-12T21:23:23.921Z,55.68
2019-05-12T21:26:34.475Z,55.31
2019-05-12T21:29:36.319Z,55.43
2019-05-12T21:32:47.170Z,55.37
2019-05-12T21:35:54.648Z,55.54
2019-05-12T21:39:08.298Z,56.00
2019-05-12T21:42:07.781Z,56.99
2019-05-12T21:45:20.275Z,56.59
2019-05-12T21:48:23.997Z,56.10
2019-05-12T21:51:30.705Z,56.61
2019-05-12T21:54:39.592Z,56.47
2019-05-12T21:57:44.141Z,56.14
2019-05-12T22:01:04.147Z,55.82
2019-05-12T22:06:19.423Z,55.56
2019-05-12T22:12:37.502Z,57.05
2019-05-12T22:15:45.408Z,56.60
2019-05-12T22:18:57.657Z,56.76
2019-05-12T22:22:00.997Z,56.61
2019-05-12T22:25:09.742Z,56.63
2019-05-12T22:28:13.668Z,57.00
2019-05-12T22:31:19.345Z,57.66
2019-05-12T22:34:27.667Z,57.45
2019-05-12T22:37:34.879Z,60.07
2019-05-12T22:40:39.907Z,59.17
2019-05-12T22:43:45.961Z,59.92
2019-05-12T22:46:53.916Z,59.63
2019-05-12T22:49:59.146Z,59.01
2019-05-12T22:53:05.166Z,59.91
2019-05-12T22:56:18.041Z,58.77
2019-05-12T22:59:25.053Z,59.59
2019-05-12T23:02:33.788Z,59.96
2019-05-12T23:05:42.699Z,61.14
2019-05-12T23:08:49.433Z,60.92
2019-05-12T23:11:55.294Z,61.34
2019-05-12T23:15:07.204Z,61.14
2019-05-12T23:18:11.626Z,63.15
2019-05-12T23:21:17.734Z,63.41
2019-05-12T23:24:23.852Z,63.13
2019-05-12T23:27:30.013Z,62.30
2019-05-12T23:30:35.965Z,62.96
2019-05-12T23:33:43.983Z,64.30
2019-05-12T23:36:53.967Z,63.84
2019-05-12T23:39:56.480Z,64.22
2019-05-12T23:43:04.011Z,65.37
2019-05-12T23:46:09.593Z,64.10
2019-05-12T23:49:15.321Z,63.87
2019-05-12T23:52:21.005Z,64.02
2019-05-12T23:55:26.717Z,64.76
2019-05-12T23:58:32.424Z,65.34
